Laguna Niguel, California
Current Conditions -  °F | °C
As of 7:53 AM on Monday 24 Nov 2014 (Local Time) from KSNA Reporting Station
Broken Clouds Broken Clouds  
Wind Chill: 60°   Ceiling: 30000
Heat Index: 60°   Visibility: 10mi
Dew Point: 28°   Wind: 0mph
Humidity: 30%   Direction: NA
Pressure: 30.18"   Gusts: NA
Location:  33.56°N, 117.7°W
Report Text: KSNA 241553Z 00000KT 10SM BKN300 16/M02 A3018 RMK AO2 SLP220 T01561022
Loading
Personal Weather Stations






























Interactive Weather Map New forecast layout! Learn more

10-Day Weather Forecast

Advertisements
Track Severe Weather on mobile